createdAt,value
2019-05-11T00:05:10.000Z,45.201
2019-05-11T00:15:11.000Z,45.208
2019-05-11T00:25:08.000Z,45.314
2019-05-11T00:35:09.000Z,45.354
2019-05-11T00:45:09.000Z,45.407
2019-05-11T00:55:08.000Z,45.349
2019-05-11T01:05:08.000Z,45.476
2019-05-11T01:15:08.000Z,45.517
2019-05-11T01:25:08.000Z,45.482
2019-05-11T01:35:08.000Z,45.554
2019-05-11T01:45:08.000Z,45.54
2019-05-11T01:55:08.000Z,45.655
2019-05-11T02:05:08.000Z,45.589
2019-05-11T02:25:08.000Z,45.617
2019-05-11T02:35:08.000Z,45.548
2019-05-11T02:45:08.000Z,45.066
2019-05-11T02:55:09.000Z,45.469
2019-05-11T03:05:08.000Z,45.521
2019-05-11T03:15:08.000Z,45.54
2019-05-11T03:25:08.000Z,45.57
2019-05-11T03:35:08.000Z,45.257
2019-05-11T03:45:08.000Z,45.479
2019-05-11T03:55:09.000Z,45.648
2019-05-11T04:05:08.000Z,45.698
2019-05-11T04:15:08.000Z,45.546
2019-05-11T04:25:08.000Z,45.5
2019-05-11T04:35:08.000Z,45.282
2019-05-11T04:45:09.000Z,45.311
2019-05-11T04:55:09.000Z,45.149
2019-05-11T05:05:08.000Z,45.073
2019-05-11T05:15:08.000Z,45.051
2019-05-11T05:25:09.000Z,44.998
2019-05-11T05:35:08.000Z,44.847
2019-05-11T05:45:08.000Z,44.825
2019-05-11T05:55:08.000Z,44.698
2019-05-11T06:05:08.000Z,44.646
2019-05-11T06:25:08.000Z,44.475
2019-05-11T06:35:08.000Z,44.314
2019-05-11T06:45:10.000Z,44.209
2019-05-11T06:55:09.000Z,44.253
2019-05-11T07:05:09.000Z,44.05
2019-05-11T07:15:09.000Z,43.955
2019-05-11T07:25:09.000Z,43.86
2019-05-11T07:35:12.000Z,43.724
2019-05-11T07:45:09.000Z,43.543
2019-05-11T07:55:10.000Z,43.384
2019-05-11T08:05:09.000Z,43.291
2019-05-11T08:15:09.000Z,43.176
2019-05-11T08:25:09.000Z,43.017
2019-05-11T08:35:09.000Z,43.008
2019-05-11T08:45:11.000Z,42.87
2019-05-11T08:55:09.000Z,42.711
2019-05-11T09:05:09.000Z,42.767
2019-05-11T09:15:09.000Z,42.736
2019-05-11T09:25:09.000Z,42.695
2019-05-11T09:35:09.000Z,42.622
2019-05-11T09:45:09.000Z,42.506
2019-05-11T09:55:09.000Z,42.486
2019-05-11T10:05:09.000Z,42.38
2019-05-11T10:15:09.000Z,42.427
2019-05-11T10:25:09.000Z,42.234
2019-05-11T10:45:09.000Z,42.161
2019-05-11T10:55:09.000Z,42.122
2019-05-11T11:05:09.000Z,42.09
2019-05-11T11:15:09.000Z,42.007
2019-05-11T11:25:09.000Z,41.998
2019-05-11T11:35:09.000Z,42.029
2019-05-11T11:45:10.000Z,41.953
2019-05-11T12:05:09.000Z,41.891
2019-05-11T12:15:09.000Z,41.827
2019-05-11T12:25:11.000Z,41.578
2019-05-11T12:35:10.000Z,41.591
2019-05-11T12:45:10.000Z,41.498
2019-05-11T12:55:09.000Z,41.51
2019-05-11T13:05:09.000Z,41.417
2019-05-11T13:15:09.000Z,41.376
2019-05-11T13:25:09.000Z,41.443
2019-05-11T13:35:09.000Z,41.391
2019-05-11T13:45:10.000Z,41.372
2019-05-11T13:55:09.000Z,41.417
2019-05-11T14:05:09.000Z,41.31
2019-05-11T14:15:09.000Z,41.354
2019-05-11T14:25:09.000Z,41.356
2019-05-11T14:35:10.000Z,41.464
2019-05-11T14:45:09.000Z,41.455
2019-05-11T14:55:10.000Z,41.379
2019-05-11T15:05:10.000Z,41.49
2019-05-11T15:15:10.000Z,41.458
2019-05-11T15:35:11.000Z,41.306
2019-05-11T15:45:10.000Z,41.138
2019-05-11T15:55:13.000Z,40.929
2019-05-11T16:05:10.000Z,40.94
2019-05-11T16:15:10.000Z,41.027
2019-05-11T16:25:10.000Z,40.984
2019-05-11T16:35:10.000Z,40.91
2019-05-11T16:45:10.000Z,40.858
2019-05-11T16:55:10.000Z,40.934
2019-05-11T17:05:10.000Z,40.893
2019-05-11T17:15:10.000Z,39.567
2019-05-11T17:25:10.000Z,40.896
2019-05-11T17:35:10.000Z,40.916
2019-05-11T17:45:10.000Z,41.089
2019-05-11T17:55:10.000Z,41.229
2019-05-11T18:05:10.000Z,41.215
2019-05-11T18:15:11.000Z,41.563
2019-05-11T18:25:12.000Z,41.857
2019-05-11T18:35:10.000Z,42.12
2019-05-11T18:45:11.000Z,42.49
2019-05-11T18:55:10.000Z,42.6
2019-05-11T19:05:10.000Z,42.939
2019-05-11T19:25:10.000Z,43.532
2019-05-11T19:35:10.000Z,43.815
2019-05-11T19:45:10.000Z,43.937
2019-05-11T19:55:10.000Z,44.187
2019-05-11T20:05:10.000Z,44.436
2019-05-11T20:15:14.000Z,44.581
2019-05-11T20:25:10.000Z,44.614
2019-05-11T20:35:13.000Z,44.691
2019-05-11T20:45:10.000Z,45.007
2019-05-11T20:55:10.000Z,45.063
2019-05-11T21:05:10.000Z,45.127
2019-05-11T21:15:10.000Z,45.161
2019-05-11T21:25:10.000Z,45.323
2019-05-11T21:35:10.000Z,45.44
2019-05-11T21:45:11.000Z,45.601
2019-05-11T21:55:13.000Z,45.666
2019-05-11T22:15:10.000Z,46.121
2019-05-11T22:25:10.000Z,46.279
2019-05-11T22:35:10.000Z,46.468
2019-05-11T22:45:10.000Z,46.574
2019-05-11T22:55:10.000Z,46.753
2019-05-11T23:05:10.000Z,46.912
2019-05-11T23:15:14.000Z,46.833
2019-05-11T23:25:11.000Z,46.819
2019-05-11T23:35:11.000Z,46.987
2019-05-11T23:45:11.000Z,46.962
2019-05-11T23:55:11.000Z,47.142
